Time;durP1;ratioP1;P1;durP2;ratioP2;P2;SDS_P1;SDS_P2;PMS_P1;PMS_P2;Temp;Humidity;BMP_temperature;BMP_pressure;BME280_temperature;BME280_humidity;BME280_pressure;Samples;Min_cycle;Max_cycle;Signal;HPM_P1;HPM_P2
2023/03/19 00:01:53;;;;;;;86.07;47.42;;;;;;;9.55;76.58;101313.75;4970389;28;20046;-86
2023/03/19 00:04:19;;;;;;;92.85;49.13;;;;;;;9.52;76.53;101312.13;4971152;28;20061;-86
2023/03/19 00:06:45;;;;;;;85.60;47.90;;;;;;;9.49;76.10;101325.75;4972513;28;20034;-86
2023/03/19 00:09:11;;;;;;;81.97;46.80;;;;;;;9.49;76.17;101328.44;4972978;28;20050;-86
2023/03/19 00:11:37;;;;;;;89.00;47.38;;;;;;;9.51;76.36;101318.47;4992570;28;20038;-84
2023/03/19 00:14:02;;;;;;;94.50;47.92;;;;;;;9.62;76.68;101320.44;4994844;28;20035;-83
2023/03/19 00:16:28;;;;;;;90.15;48.13;;;;;;;9.73;76.03;101326.81;4977025;28;20130;-85
2023/03/19 00:18:53;;;;;;;82.80;49.40;;;;;;;9.71;75.66;101318.00;4971158;28;20031;-86
2023/03/19 00:21:20;;;;;;;92.05;46.67;;;;;;;9.70;75.13;101327.03;4971034;28;20109;-85
2023/03/19 00:23:45;;;;;;;90.53;48.15;;;;;;;9.62;75.16;101307.03;4971546;28;20105;-86
2023/03/19 00:26:11;;;;;;;86.22;48.25;;;;;;;9.67;77.16;101313.81;4970738;28;20073;-84
2023/03/19 00:28:36;;;;;;;86.00;46.75;;;;;;;9.64;76.63;101308.63;4970973;28;20023;-84
2023/03/19 00:31:10;;;;;;;81.68;45.40;;;;;;;9.64;76.20;101308.63;4987326;28;20058;-87
2023/03/19 00:33:35;;;;;;;86.95;46.55;;;;;;;9.39;76.43;101273.63;4970943;28;20054;-85
2023/03/19 00:36:01;;;;;;;83.60;45.33;;;;;;;9.66;76.26;101292.44;4970883;28;20047;-86
2023/03/19 00:38:27;;;;;;;84.07;47.88;;;;;;;9.59;75.39;101286.59;4970941;28;20023;-87
2023/03/19 00:40:52;;;;;;;73.95;45.05;;;;;;;9.57;75.15;101288.50;4974472;28;20042;-87
2023/03/19 00:43:17;;;;;;;84.10;48.38;;;;;;;9.40;75.51;101302.22;4975355;28;20019;-88
2023/03/19 00:45:43;;;;;;;84.25;46.03;;;;;;;9.52;75.58;101304.06;4971999;28;20111;-85
2023/03/19 00:48:08;;;;;;;80.90;47.45;;;;;;;9.45;75.79;101308.13;4973474;28;20019;-85
2023/03/19 00:50:34;;;;;;;86.28;47.70;;;;;;;9.46;76.14;101304.47;4975026;28;20035;-87
2023/03/19 00:53:00;;;;;;;79.38;46.67;;;;;;;9.43;76.18;101303.81;4980150;28;20027;-86
2023/03/19 00:55:26;;;;;;;79.20;47.15;;;;;;;9.46;76.61;101308.97;4974216;28;20428;-84
2023/03/19 00:57:51;;;;;;;77.45;46.30;;;;;;;9.49;76.39;101308.78;4974178;28;20486;-87
2023/03/19 01:00:18;;;;;;;78.60;46.97;;;;;;;9.57;75.98;101301.94;4988039;28;20474;-86
2023/03/19 01:02:44;;;;;;;84.07;48.15;;;;;;;9.52;75.69;101287.97;4973529;28;20031;-84
2023/03/19 01:05:09;;;;;;;83.28;45.53;;;;;;;9.41;75.36;101295.00;4976394;28;20069;-86
2023/03/19 01:07:35;;;;;;;83.53;47.20;;;;;;;9.41;75.61;101303.94;4975487;28;20023;-85
2023/03/19 01:10:01;;;;;;;78.05;47.55;;;;;;;9.39;76.09;101300.47;4987439;28;20050;-84
2023/03/19 01:12:26;;;;;;;81.80;44.65;;;;;;;9.41;76.10;101276.22;4993225;28;20034;-83
2023/03/19 01:14:51;;;;;;;76.88;46.15;;;;;;;9.55;75.67;101282.38;4998839;28;20371;-86
2023/03/19 01:17:17;;;;;;;81.88;46.92;;;;;;;9.57;75.59;101288.50;4974926;28;20027;-85
2023/03/19 01:19:42;;;;;;;77.13;47.30;;;;;;;9.55;75.57;101294.94;4975000;28;20033;-85
2023/03/19 01:22:08;;;;;;;74.03;44.83;;;;;;;9.59;75.28;101291.97;4974712;28;20042;-85
2023/03/19 01:24:34;;;;;;;75.10;45.58;;;;;;;9.65;75.30;101291.56;4974576;28;20501;-86
2023/03/19 01:26:59;;;;;;;74.95;44.80;;;;;;;9.53;75.39;101288.84;4974369;28;20100;-86
2023/03/19 01:29:24;;;;;;;76.75;42.10;;;;;;;9.65;74.99;101296.06;4974100;28;21135;-84
2023/03/19 01:31:50;;;;;;;69.78;43.20;;;;;;;9.57;74.67;101293.88;4974244;28;20038;-85
2023/03/19 01:34:15;;;;;;;73.53;42.03;;;;;;;9.43;75.63;101296.63;4974264;28;20042;-85
2023/03/19 01:36:41;;;;;;;73.47;43.65;;;;;;;9.45;74.92;101296.56;4977451;28;20030;-85
2023/03/19 01:39:07;;;;;;;78.03;42.97;;;;;;;9.49;74.83;101295.34;4978582;28;20090;-85
2023/03/19 01:41:32;;;;;;;74.57;42.72;;;;;;;9.49;75.18;101288.16;4990068;28;20023;-83
2023/03/19 01:43:58;;;;;;;67.90;41.63;;;;;;;9.61;74.61;101306.16;4997338;28;20035;-82
2023/03/19 01:46:32;;;;;;;68.80;40.40;;;;;;;9.58;74.08;101306.34;4998235;28;20027;-85
2023/03/19 01:49:05;;;;;;;69.68;41.00;;;;;;;9.54;74.13;101299.47;4992780;28;20041;-84
2023/03/19 01:51:42;;;;;;;71.90;42.10;;;;;;;9.51;74.51;101294.28;5001582;28;20205;-87
2023/03/19 01:54:12;;;;;;;77.78;43.33;;;;;;;9.52;74.75;101300.53;4976828;28;20031;-85
2023/03/19 01:56:40;;;;;;;67.22;40.42;;;;;;;9.49;74.90;101296.22;4975000;28;20109;-84
2023/03/19 01:59:17;;;;;;;77.15;42.03;;;;;;;9.54;74.88;101310.19;4974413;28;20031;-85
2023/03/19 02:01:49;;;;;;;71.75;41.83;;;;;;;9.58;74.51;101300.97;4975050;28;20359;-85
2023/03/19 02:04:15;;;;;;;71.72;41.28;;;;;;;9.62;74.24;101298.97;4975885;28;20482;-87
2023/03/19 02:06:42;;;;;;;68.18;42.00;;;;;;;9.60;74.25;101293.69;4975334;28;20086;-85
2023/03/19 02:09:08;;;;;;;75.88;42.47;;;;;;;9.61;74.27;101298.09;5003721;28;20063;-82
2023/03/19 02:11:35;;;;;;;78.82;42.85;;;;;;;9.65;74.01;101305.00;4995887;28;20027;-83
2023/03/19 02:14:00;;;;;;;75.45;41.78;;;;;;;9.72;74.15;101318.88;4987707;28;20046;-83
2023/03/19 02:16:26;;;;;;;74.03;41.38;;;;;;;9.64;74.21;101308.63;4990127;28;20918;-84
2023/03/19 02:18:52;;;;;;;78.35;43.95;;;;;;;9.71;73.94;101314.47;4973746;28;20030;-85
2023/03/19 02:21:20;;;;;;;75.35;42.35;;;;;;;9.78;73.90;101324.69;4972553;28;20030;-85
2023/03/19 02:23:58;;;;;;;74.78;44.58;;;;;;;9.71;74.20;101328.75;4972535;28;20031;-84
2023/03/19 02:26:27;;;;;;;72.90;42.58;;;;;;;9.80;74.65;101327.28;4971948;28;20031;-85
2023/03/19 02:28:53;;;;;;;79.93;43.42;;;;;;;9.85;74.11;101330.50;4972434;28;20031;-85
2023/03/19 02:31:19;;;;;;;82.95;45.25;;;;;;;9.83;73.87;101333.31;4973021;28;20089;-85
2023/03/19 02:34:25;;;;;;;78.45;43.10;;;;;;;9.89;74.06;101336.53;4973844;28;20026;-86
2023/03/19 02:36:56;;;;;;;85.38;45.80;;;;;;;9.74;73.54;101323.19;4973292;28;20189;-84
2023/03/19 02:39:36;;;;;;;75.10;41.63;;;;;;;9.71;73.63;101339.50;4972713;28;20030;-86
2023/03/19 02:42:03;;;;;;;77.53;43.00;;;;;;;9.59;73.89;101331.41;4986780;28;20039;-86
2023/03/19 02:44:28;;;;;;;79.40;42.95;;;;;;;9.64;73.87;101348.91;4986974;28;20027;-86
2023/03/19 02:46:54;;;;;;;80.55;44.10;;;;;;;9.50;74.10;101346.28;4971811;28;20115;-86
2023/03/19 02:49:19;;;;;;;85.05;45.28;;;;;;;9.59;74.61;101356.44;4971335;28;20023;-85
2023/03/19 02:51:45;;;;;;;72.22;43.80;;;;;;;9.73;74.89;101352.81;4970281;28;20121;-86
2023/03/19 02:54:10;;;;;;;78.45;45.10;;;;;;;9.84;74.80;101359.22;4971778;28;20023;-84
2023/03/19 02:56:36;;;;;;;74.18;42.22;;;;;;;9.87;74.69;101359.97;4972707;28;20506;-85
2023/03/19 02:59:01;;;;;;;78.53;43.47;;;;;;;9.93;73.73;101356.88;4972663;28;20379;-85
2023/03/19 03:01:28;;;;;;;78.18;42.20;;;;;;;9.80;73.47;101372.94;4974083;28;20042;-85
2023/03/19 03:03:53;;;;;;;79.75;42.67;;;;;;;9.75;73.74;101361.66;4976295;28;20035;-84
2023/03/19 03:06:19;;;;;;;84.43;44.33;;;;;;;9.78;74.09;101359.59;4976221;28;20050;-83
2023/03/19 03:08:44;;;;;;;76.18;42.03;;;;;;;9.78;73.79;101361.44;4990434;28;20061;-84
2023/03/19 03:11:10;;;;;;;76.80;40.28;;;;;;;9.69;73.79;101365.59;4992864;28;20031;-83
2023/03/19 03:13:36;;;;;;;79.30;43.40;;;;;;;9.71;74.07;101366.38;4979919;28;20118;-84
2023/03/19 03:16:01;;;;;;;79.05;43.55;;;;;;;9.60;74.11;101362.66;4972837;28;20019;-85
2023/03/19 03:18:27;;;;;;;78.43;42.67;;;;;;;9.43;74.38;101342.28;4972651;28;20031;-85
2023/03/19 03:20:52;;;;;;;69.55;37.42;;;;;;;9.35;74.84;101347.28;4972284;28;20524;-83
2023/03/19 03:23:19;;;;;;;73.22;41.30;;;;;;;9.18;75.18;101344.81;4986486;28;20035;-85
2023/03/19 03:25:47;;;;;;;72.93;40.00;;;;;;;9.08;76.16;101365.16;4971390;28;20026;-84
2023/03/19 03:28:12;;;;;;;74.38;40.33;;;;;;;9.26;75.99;101374.72;4986486;28;20030;-86
2023/03/19 03:30:38;;;;;;;78.43;41.15;;;;;;;9.24;75.92;101360.53;4971460;28;20035;-87
2023/03/19 03:33:03;;;;;;;68.45;37.53;;;;;;;9.15;76.46;101371.84;4971561;28;20431;-86
2023/03/19 03:35:29;;;;;;;70.38;38.63;;;;;;;9.19;75.78;101379.63;4971707;28;20402;-85
2023/03/19 03:37:55;;;;;;;71.22;38.10;;;;;;;9.18;75.78;101377.88;4970736;28;20041;-85
2023/03/19 03:40:20;;;;;;;68.13;36.45;;;;;;;9.21;75.73;101377.69;4971545;28;20517;-83
2023/03/19 03:42:46;;;;;;;70.22;38.90;;;;;;;9.16;75.80;101381.63;4971162;28;20494;-84
2023/03/19 03:45:11;;;;;;;62.05;34.40;;;;;;;9.23;76.07;101385.66;5007144;28;20603;-85
2023/03/19 03:47:38;;;;;;;69.15;37.22;;;;;;;9.16;75.97;101374.44;5007758;28;20110;-85
2023/03/19 03:50:04;;;;;;;58.17;32.80;;;;;;;9.14;75.99;101367.47;5015106;28;20034;-87
2023/03/19 03:52:32;;;;;;;61.03;33.63;;;;;;;9.30;76.21;101381.59;5010910;28;20042;-85
2023/03/19 03:54:58;;;;;;;59.95;35.13;;;;;;;9.34;75.83;101374.22;5007895;28;20038;-85
2023/03/19 03:57:24;;;;;;;59.75;32.80;;;;;;;9.38;74.85;101378.44;5007882;28;20041;-85
2023/03/19 03:59:50;;;;;;;52.92;30.23;;;;;;;9.33;74.59;101386.78;5007511;28;20045;-85
2023/03/19 04:02:15;;;;;;;64.63;33.72;;;;;;;9.33;74.65;101381.41;5010633;28;20045;-86
2023/03/19 04:04:41;;;;;;;55.88;31.75;;;;;;;9.38;74.67;101378.44;5010907;28;20037;-86
2023/03/19 04:07:07;;;;;;;57.05;32.15;;;;;;;9.49;74.61;101375.91;5019446;28;20064;-81
2023/03/19 04:09:32;;;;;;;53.92;28.90;;;;;;;9.33;74.10;101367.97;5032683;28;20058;-81
2023/03/19 04:11:59;;;;;;;58.17;30.38;;;;;;;9.39;73.92;101383.69;5029162;28;20046;-85
2023/03/19 04:14:25;;;;;;;50.97;29.95;;;;;;;9.39;73.68;101374.81;5007779;28;20529;-85
2023/03/19 04:16:50;;;;;;;52.58;29.55;;;;;;;9.39;73.56;101389.06;4979581;28;20034;-86
2023/03/19 04:19:16;;;;;;;53.15;30.25;;;;;;;9.24;74.16;101366.75;4974369;28;20051;-85
2023/03/19 04:21:41;;;;;;;54.42;30.70;;;;;;;9.38;74.14;101392.72;4993956;28;20079;-83
2023/03/19 04:24:09;;;;;;;54.70;31.42;;;;;;;9.35;74.08;101379.50;4994752;28;20046;-83
2023/03/19 04:26:36;;;;;;;50.80;28.45;;;;;;;9.43;74.18;101387.06;4995278;28;20085;-83
2023/03/19 04:29:01;;;;;;;57.63;29.75;;;;;;;9.37;73.84;101393.69;4995765;28;20058;-84
2023/03/19 04:31:27;;;;;;;52.38;27.50;;;;;;;9.26;73.82;101390.84;4994378;28;20027;-82
2023/03/19 04:33:53;;;;;;;53.42;29.02;;;;;;;9.30;74.05;101397.72;4994411;28;20046;-84
2023/03/19 04:36:18;;;;;;;50.67;27.63;;;;;;;9.29;74.29;101402.22;4992421;28;20035;-86
2023/03/19 04:38:44;;;;;;;50.17;27.33;;;;;;;9.33;74.09;101402.88;4991306;28;20014;-82
2023/03/19 04:41:09;;;;;;;48.60;28.05;;;;;;;9.28;73.69;101410.38;4994864;28;20007;-87
2023/03/19 04:43:35;;;;;;;50.22;28.38;;;;;;;9.29;73.90;101412.94;4989980;28;20182;-87
2023/03/19 04:46:01;;;;;;;50.83;27.98;;;;;;;9.18;74.65;101420.81;4973961;28;20086;-86
2023/03/19 04:48:27;;;;;;;55.45;27.23;;;;;;;9.23;74.37;101420.56;4988732;28;20450;-85
2023/03/19 04:50:55;;;;;;;56.90;29.00;;;;;;;9.23;74.38;101432.13;4977318;28;20046;-87
2023/03/19 04:53:22;;;;;;;56.03;30.65;;;;;;;9.24;74.54;101420.44;4977784;28;20033;-85
2023/03/19 04:55:48;;;;;;;61.78;29.90;;;;;;;9.33;74.82;101408.25;4976579;28;20034;-85
2023/03/19 04:58:13;;;;;;;61.58;30.42;;;;;;;9.39;74.56;101407.84;4979365;28;20089;-88
2023/03/19 05:00:39;;;;;;;56.70;30.38;;;;;;;9.43;74.69;101419.28;4975789;28;20542;-86
2023/03/19 05:03:05;;;;;;;55.75;29.65;;;;;;;9.56;74.13;101409.47;4983807;28;20478;-85
2023/03/19 05:05:30;;;;;;;74.03;31.20;;;;;;;9.65;73.83;101409.75;4982701;28;20046;-84
2023/03/19 05:07:56;;;;;;;57.45;29.50;;;;;;;9.62;73.47;101401.03;4984834;28;20104;-85
2023/03/19 05:10:22;;;;;;;64.22;31.40;;;;;;;9.67;73.20;101402.44;4998003;28;20031;-83
2023/03/19 05:12:47;;;;;;;58.97;29.67;;;;;;;9.52;73.71;101413.31;4982869;28;20154;-88
2023/03/19 05:15:13;;;;;;;56.13;31.20;;;;;;;9.65;73.31;101415.13;4977186;28;20053;-87
2023/03/19 05:17:40;;;;;;;60.30;32.15;;;;;;;9.76;73.27;101396.47;4974621;28;20034;-85
2023/03/19 05:20:06;;;;;;;57.35;29.73;;;;;;;9.90;72.93;101395.56;4976600;28;20026;-87
2023/03/19 05:22:31;;;;;;;56.78;30.80;;;;;;;9.99;72.63;101410.22;4974637;28;20490;-86
2023/03/19 05:24:57;;;;;;;51.10;28.20;;;;;;;9.99;72.10;101410.22;4972794;28;20094;-86
2023/03/19 05:27:22;;;;;;;51.53;28.98;;;;;;;9.98;71.46;101405.78;4973733;28;20034;-85
2023/03/19 05:29:48;;;;;;;51.00;28.50;;;;;;;10.01;71.32;101395.69;4975205;28;20039;-85
2023/03/19 05:32:14;;;;;;;53.13;27.70;;;;;;;10.06;71.08;101395.41;4974081;28;20022;-85
2023/03/19 05:34:40;;;;;;;50.55;27.65;;;;;;;10.12;71.47;101408.44;4974806;28;20031;-84
2023/03/19 05:37:05;;;;;;;54.15;28.20;;;;;;;10.09;70.78;101416.72;4974822;28;20027;-84
2023/03/19 05:39:31;;;;;;;44.83;25.55;;;;;;;10.12;71.07;101413.81;4970618;28;20033;-83
2023/03/19 05:41:56;;;;;;;41.28;25.52;;;;;;;10.03;70.66;101417.94;4962188;28;20055;-84
2023/03/19 05:44:22;;;;;;;46.75;25.05;;;;;;;10.18;70.54;101426.88;4955077;28;20031;-84
2023/03/19 05:46:47;;;;;;;36.83;22.63;;;;;;;9.89;70.11;101414.47;4955439;28;20051;-83
2023/03/19 05:49:13;;;;;;;42.60;22.67;;;;;;;9.93;69.97;101419.53;4955387;28;20038;-82
2023/03/19 05:51:38;;;;;;;39.40;22.83;;;;;;;9.81;70.62;101405.06;4956236;28;20035;-84
2023/03/19 05:54:04;;;;;;;44.42;22.98;;;;;;;9.98;70.36;101403.09;4959500;28;20038;-84
2023/03/19 05:56:29;;;;;;;44.17;25.23;;;;;;;10.12;69.98;101398.50;4966803;28;20042;-81
2023/03/19 05:58:55;;;;;;;38.05;22.75;;;;;;;10.10;69.51;101405.84;4977884;28;20174;-82
2023/03/19 06:01:21;;;;;;;40.30;22.77;;;;;;;10.07;70.06;101405.16;4976637;28;20035;-83
2023/03/19 06:03:46;;;;;;;35.45;21.13;;;;;;;10.12;68.96;101413.81;4968778;28;20046;-83
2023/03/19 06:06:12;;;;;;;39.15;22.50;;;;;;;10.07;68.46;101400.66;4969559;28;20032;-82
2023/03/19 06:08:37;;;;;;;42.90;23.20;;;;;;;10.12;69.33;101413.81;4974104;28;20043;-83
2023/03/19 06:11:03;;;;;;;35.40;21.83;;;;;;;10.17;68.85;101407.19;4962712;28;20085;-87
2023/03/19 06:13:29;;;;;;;38.17;21.58;;;;;;;10.19;68.52;101404.38;4953733;28;20035;-85
2023/03/19 06:15:55;;;;;;;33.72;20.58;;;;;;;10.19;68.44;101420.50;4954218;28;20464;-83
2023/03/19 06:18:20;;;;;;;39.58;20.95;;;;;;;10.25;68.14;101430.84;4953430;28;20063;-81
2023/03/19 06:20:46;;;;;;;31.85;19.63;;;;;;;10.35;67.92;101429.28;4953489;28;20102;-82
2023/03/19 06:23:11;;;;;;;33.75;19.63;;;;;;;10.49;68.30;101434.56;4952502;29;20490;-86
2023/03/19 06:25:37;;;;;;;30.70;18.67;;;;;;;10.00;67.29;101393.97;4952913;28;20034;-86
2023/03/19 06:28:04;;;;;;;28.98;18.05;;;;;;;10.11;67.16;101433.59;4952779;28;20039;-82
2023/03/19 06:30:30;;;;;;;29.42;18.13;;;;;;;9.95;67.37;101425.66;4960891;28;20035;-82
2023/03/19 06:32:55;;;;;;;31.83;18.73;;;;;;;9.87;67.55;101425.31;4971288;28;20041;-81
2023/03/19 06:35:21;;;;;;;31.58;18.10;;;;;;;9.80;68.46;101430.22;4970306;28;20026;-81
2023/03/19 06:37:47;;;;;;;29.90;17.30;;;;;;;9.80;68.73;101434.75;4971046;28;20046;-81
2023/03/19 06:40:13;;;;;;;31.33;19.35;;;;;;;9.67;69.17;101434.66;4970672;28;20027;-81
2023/03/19 06:42:39;;;;;;;33.42;18.65;;;;;;;9.78;68.46;101442.03;4970004;28;20035;-82
2023/03/19 06:45:06;;;;;;;37.30;18.83;;;;;;;9.85;68.36;101443.34;4969773;28;20031;-83
2023/03/19 06:47:32;;;;;;;32.70;19.40;;;;;;;10.05;67.56;101450.97;4970769;28;20569;-81
2023/03/19 06:49:58;;;;;;;24.23;14.73;;;;;;;10.08;67.22;101452.59;4972063;28;20035;-82
2023/03/19 06:52:24;;;;;;;23.88;16.00;;;;;;;10.22;66.87;101455.25;4971087;28;20034;-82
2023/03/19 06:54:49;;;;;;;26.23;15.65;;;;;;;10.10;66.77;101453.34;4971270;28;20454;-81
2023/03/19 06:57:15;;;;;;;35.75;15.27;;;;;;;10.03;66.73;101454.75;4970789;28;20030;-84
2023/03/19 06:59:41;;;;;;;25.48;15.82;;;;;;;9.96;66.65;101450.72;4971690;28;20027;-84
2023/03/19 07:02:11;;;;;;;26.48;14.50;;;;;;;10.11;66.44;101455.09;4972850;28;20034;-81
2023/03/19 07:04:36;;;;;;;26.10;15.07;;;;;;;10.18;65.67;101462.66;4986667;28;20038;-80
2023/03/19 07:07:04;;;;;;;29.60;15.57;;;;;;;10.33;65.42;101471.53;4983510;28;20034;-83
2023/03/19 07:09:29;;;;;;;29.02;14.32;;;;;;;10.28;65.33;101479.03;4970865;28;20134;-83
2023/03/19 07:11:55;;;;;;;21.20;14.15;;;;;;;10.27;65.10;101472.78;4970998;28;20121;-83
2023/03/19 07:14:20;;;;;;;25.60;14.45;;;;;;;10.34;65.22;101478.63;4972166;28;20390;-82
2023/03/19 07:16:46;;;;;;;24.50;15.00;;;;;;;10.29;65.04;101452.06;4970060;28;20019;-82
2023/03/19 07:19:11;;;;;;;29.63;15.07;;;;;;;10.45;64.86;101469.84;4971033;28;20035;-85
2023/03/19 07:21:37;;;;;;;36.15;14.85;;;;;;;10.44;64.84;101469.00;4970429;28;20109;-79
2023/03/19 07:24:02;;;;;;;25.40;16.40;;;;;;;10.49;65.17;101463.31;4970353;28;20066;-83
2023/03/19 07:26:28;;;;;;;27.63;14.90;;;;;;;10.65;64.81;101466.66;4970817;28;20031;-82
2023/03/19 07:28:53;;;;;;;29.70;15.10;;;;;;;10.66;63.98;101474.66;4970592;28;20092;-83
2023/03/19 07:31:19;;;;;;;21.92;14.52;;;;;;;10.64;64.64;101468.50;4970882;28;20486;-83
2023/03/19 07:33:44;;;;;;;33.78;15.18;;;;;;;10.62;64.14;101467.75;4970850;28;20041;-82
2023/03/19 07:36:10;;;;;;;22.83;14.52;;;;;;;10.69;64.29;101468.19;4970769;28;20030;-83
2023/03/19 07:38:35;;;;;;;31.30;13.60;;;;;;;10.54;63.95;101464.72;4969753;28;20043;-83
2023/03/19 07:41:01;;;;;;;21.73;11.90;;;;;;;10.50;64.43;101460.50;4970213;28;20037;-82
2023/03/19 07:43:26;;;;;;;19.85;11.23;;;;;;;10.46;64.68;101463.53;4968226;28;20043;-82
2023/03/19 07:45:54;;;;;;;26.58;14.00;;;;;;;10.35;64.07;101477.69;4970276;28;20045;-83
2023/03/19 07:48:20;;;;;;;24.92;13.90;;;;;;;10.38;65.02;101475.66;4971010;28;20402;-84
2023/03/19 07:50:46;;;;;;;23.20;13.20;;;;;;;10.49;64.80;101477.59;4970714;28;20027;-82
2023/03/19 07:53:11;;;;;;;32.75;13.27;;;;;;;10.50;64.43;101484.72;4970172;28;20030;-84
2023/03/19 07:55:37;;;;;;;22.33;13.60;;;;;;;10.52;64.11;101474.69;4971053;28;20037;-82
2023/03/19 07:58:03;;;;;;;21.80;12.38;;;;;;;10.63;63.99;101474.84;4972869;28;20117;-82
2023/03/19 08:00:28;;;;;;;27.23;12.52;;;;;;;10.66;63.30;101477.34;4981364;28;20026;-82
2023/03/19 08:02:54;;;;;;;21.27;13.25;;;;;;;10.75;63.33;101474.00;4989419;28;20030;-82
2023/03/19 08:05:19;;;;;;;38.65;13.02;;;;;;;10.89;63.91;101471.22;4981256;28;20031;-84
2023/03/19 08:07:46;;;;;;;23.55;14.55;;;;;;;11.04;62.89;101463.06;4970410;28;20101;-83
2023/03/19 08:10:11;;;;;;;38.22;15.55;;;;;;;11.12;63.23;101468.75;4970903;28;20023;-84
2023/03/19 08:12:39;;;;;;;23.60;13.55;;;;;;;11.20;63.17;101469.06;4970183;28;20034;-83
2023/03/19 08:15:07;;;;;;;21.92;12.90;;;;;;;11.34;62.95;101471.66;4970639;28;20033;-83
2023/03/19 08:17:37;;;;;;;17.85;12.13;;;;;;;11.47;62.03;101462.59;4969624;28;20422;-82
2023/03/19 08:20:08;;;;;;;19.38;11.38;;;;;;;11.58;61.46;101471.75;4970714;28;20085;-84
2023/03/19 08:22:35;;;;;;;21.33;12.23;;;;;;;11.50;60.92;101471.44;4972933;28;20042;-83
2023/03/19 08:25:01;;;;;;;36.17;13.45;;;;;;;11.33;61.43;101460.03;4974988;28;20022;-83
2023/03/19 08:27:29;;;;;;;18.90;12.38;;;;;;;11.31;61.59;101453.03;4974667;28;20204;-84
2023/03/19 08:29:55;;;;;;;25.25;12.85;;;;;;;11.42;62.00;101458.50;4983269;28;20033;-82
2023/03/19 08:32:20;;;;;;;17.00;11.60;;;;;;;11.51;61.63;101468.63;4994263;28;20035;-80
2023/03/19 08:34:46;;;;;;;26.00;13.27;;;;;;;11.55;61.37;101458.50;4995173;28;20023;-82
2023/03/19 08:37:11;;;;;;;32.60;13.95;;;;;;;11.60;61.35;101465.25;4993374;28;20039;-81
2023/03/19 08:39:37;;;;;;;22.95;13.27;;;;;;;11.59;61.16;101470.78;4974596;28;20027;-83
2023/03/19 08:42:02;;;;;;;29.27;12.55;;;;;;;11.69;61.11;101461.91;4974445;28;20030;-85
2023/03/19 08:44:27;;;;;;;18.15;10.60;;;;;;;11.89;60.84;101447.00;4974335;28;20030;-81
2023/03/19 08:46:53;;;;;;;24.45;11.70;;;;;;;12.03;60.18;101457.63;4974631;28;20027;-82
2023/03/19 08:49:18;;;;;;;21.15;11.77;;;;;;;12.18;59.58;101450.22;4974763;28;20030;-84
2023/03/19 08:51:44;;;;;;;26.70;13.43;;;;;;;11.98;59.54;101452.59;4975051;28;20027;-84
2023/03/19 08:54:10;;;;;;;39.30;12.75;;;;;;;12.12;60.01;101458.78;4975327;28;20035;-83
2023/03/19 08:56:35;;;;;;;25.45;12.02;;;;;;;12.28;59.84;101454.81;4975687;28;20057;-83
2023/03/19 08:59:01;;;;;;;16.73;11.93;;;;;;;12.50;59.38;101448.66;4987521;28;20054;-82
2023/03/19 09:01:26;;;;;;;25.85;11.60;;;;;;;12.68;58.61;101458.03;4984732;28;20049;-82
2023/03/19 09:03:52;;;;;;;18.90;11.80;;;;;;;12.79;58.77;101449.97;4973744;28;20110;-84
2023/03/19 09:06:17;;;;;;;17.88;11.30;;;;;;;12.86;58.13;101456.63;4973577;28;20031;-84
2023/03/19 09:08:43;;;;;;;23.42;11.00;;;;;;;12.94;58.05;101451.47;4973701;28;20061;-84
2023/03/19 09:11:09;;;;;;;17.33;11.68;;;;;;;13.07;57.73;101457.63;4974207;28;20023;-84
2023/03/19 09:13:36;;;;;;;35.30;12.18;;;;;;;13.22;57.05;101454.72;4973985;28;20101;-84
2023/03/19 09:16:02;;;;;;;18.02;10.88;;;;;;;13.21;56.58;101463.84;4973567;28;20107;-84
2023/03/19 09:18:27;;;;;;;26.33;11.25;;;;;;;13.01;56.26;101432.94;4973903;28;20058;-84
2023/03/19 09:20:53;;;;;;;18.45;11.43;;;;;;;12.93;56.97;101438.97;4973787;28;20501;-83
2023/03/19 09:23:20;;;;;;;20.60;11.63;;;;;;;12.65;57.67;101447.47;4970636;28;20146;-83
2023/03/19 09:25:45;;;;;;;32.53;13.25;;;;;;;12.72;57.99;101448.72;4970770;28;20041;-84
2023/03/19 09:28:11;;;;;;;32.88;11.98;;;;;;;12.70;57.63;101441.72;4970341;28;20043;-83
2023/03/19 09:30:38;;;;;;;18.00;10.77;;;;;;;12.48;57.90;101450.59;4971110;28;20069;-83
2023/03/19 09:33:04;;;;;;;42.40;22.60;;;;;;;12.41;58.65;101446.66;4954237;28;20055;-82
2023/03/19 09:35:31;;;;;;;18.27;10.90;;;;;;;12.46;58.94;101441.78;4937127;28;20117;-83
2023/03/19 09:37:57;;;;;;;23.27;11.02;;;;;;;12.54;58.58;101444.72;4969942;28;20121;-83
2023/03/19 09:40:32;;;;;;;18.30;11.90;;;;;;;12.33;58.39;101427.47;4970123;28;20038;-83
2023/03/19 09:43:35;;;;;;;15.98;10.50;;;;;;;12.35;58.50;101439.03;4970173;28;20137;-85
2023/03/19 09:46:05;;;;;;;19.20;11.05;;;;;;;12.29;59.10;101415.22;4912804;29;20047;-83
2023/03/19 09:48:37;;;;;;;24.90;12.70;;;;;;;12.31;59.33;101440.25;4912887;29;20032;-83
2023/03/19 09:51:06;;;;;;;28.50;12.75;;;;;;;12.49;59.51;101433.44;4913193;29;20040;-85
2023/03/19 09:53:52;;;;;;;26.27;12.57;;;;;;;12.55;59.02;101419.47;4912717;29;20040;-83
2023/03/19 09:56:18;;;;;;;25.52;12.70;;;;;;;12.81;58.35;101418.31;4931809;29;20214;-82
2023/03/19 09:58:44;;;;;;;22.10;14.15;;;;;;;12.73;57.92;101423.44;4930661;29;20083;-83
2023/03/19 10:01:39;;;;;;;21.17;11.90;;;;;;;12.97;58.78;101424.22;4913218;29;20036;-83
2023/03/19 10:04:36;;;;;;;23.00;10.45;;;;;;;13.14;57.21;101411.28;4893935;29;20127;-83
2023/03/19 10:07:31;;;;;;;63.53;16.45;;;;;;;13.26;57.24;101419.25;4893956;29;20080;-85
2023/03/19 10:10:15;;;;;;;24.73;13.20;;;;;;;13.36;56.49;101417.50;4877875;29;20081;-83
2023/03/19 10:13:01;;;;;;;22.02;11.80;;;;;;;13.28;56.67;101397.50;4894081;29;20036;-82
2023/03/19 10:15:31;;;;;;;19.08;10.60;;;;;;;13.27;56.39;101402.03;4894468;29;20147;-84
2023/03/19 10:17:57;;;;;;;16.02;11.07;;;;;;;13.20;56.72;101405.38;4893992;29;20488;-83
2023/03/19 10:20:31;;;;;;;24.90;12.95;;;;;;;13.15;56.91;101389.53;4894845;29;20104;-84
2023/03/19 10:23:12;;;;;;;28.95;13.52;;;;;;;12.98;57.17;101404.34;4941240;28;20191;-83
2023/03/19 10:25:40;;;;;;;291.20;41.63;;;;;;;12.87;57.94;101414.28;4960964;28;20031;-82
2023/03/19 10:28:20;;;;;;;27.30;14.02;;;;;;;12.83;57.93;101407.41;4962416;28;20035;-80
2023/03/19 10:30:59;;;;;;;46.78;13.93;;;;;;;12.74;58.17;101408.97;4955165;28;20411;-83
2023/03/19 10:33:41;;;;;;;35.35;12.07;;;;;;;12.90;58.00;101401.38;4950661;28;20053;-82
2023/03/19 10:36:10;;;;;;;54.80;26.55;;;;;;;12.99;57.88;101400.69;4951425;28;20063;-83
2023/03/19 10:38:42;;;;;;;22.13;13.45;;;;;;;13.02;57.61;101397.75;4950410;28;20543;-83
2023/03/19 10:41:26;;;;;;;;;;;;;;;13.01;58.05;101396.00;4963780;28;20035;-84
2023/03/19 10:44:05;;;;;;;32.15;14.45;;;;;;;12.97;57.95;101394.53;4971761;28;19972;-82
2023/03/19 10:46:39;;;;;;;50.90;14.93;;;;;;;12.84;58.26;101387.53;4971446;28;20042;-83
2023/03/19 10:49:10;;;;;;;24.58;13.57;;;;;;;13.03;57.72;101382.38;4971584;28;20031;-83
2023/03/19 10:51:37;;;;;;;51.40;14.38;;;;;;;13.33;57.47;101371.84;4977294;28;20043;-83
2023/03/19 10:54:21;;;;;;;22.92;12.95;;;;;;;13.28;56.45;101381.28;4986827;28;20023;-83
2023/03/19 10:56:48;;;;;;;19.45;11.50;;;;;;;13.11;56.90;101379.09;4983263;28;20034;-85
2023/03/19 10:59:30;;;;;;;18.55;11.00;;;;;;;13.17;57.23;101373.22;4971275;28;20058;-85
2023/03/19 11:02:02;;;;;;;28.25;13.57;;;;;;;13.24;56.74;101369.03;4971278;28;20530;-84
2023/03/19 11:04:28;;;;;;;;;;;;;;;12.99;57.36;101370.13;4971490;28;20070;-82
2023/03/19 11:07:01;;;;;;;39.20;15.20;;;;;;;13.03;57.45;101369.72;4971785;28;20016;-83
2023/03/19 11:09:37;;;;;;;28.17;12.55;;;;;;;12.91;57.63;101364.44;4971224;28;20106;-84
2023/03/19 11:12:17;;;;;;;22.00;13.95;;;;;;;12.90;58.16;101358.19;4971016;28;20442;-83
2023/03/19 11:14:46;;;;;;;23.83;13.25;;;;;;;12.63;58.54;101346.88;4952999;28;20108;-83
2023/03/19 11:17:28;;;;;;;45.65;15.35;;;;;;;12.70;58.62;101355.34;4970858;28;20026;-83